sensor_id;sensor_type;location;lat;lon;timestamp;P1;durP1;ratioP1;P2;durP2;ratioP2
42284;SDS011;27942;47.510;18.966;2022-12-18T00:01:24;4.70;;;4.50;;
42284;SDS011;27942;47.510;18.966;2022-12-18T00:03:52;5.22;;;4.95;;
42284;SDS011;27942;47.510;18.966;2022-12-18T00:06:18;6.63;;;6.07;;
42284;SDS011;27942;47.510;18.966;2022-12-18T00:08:45;6.13;;;5.70;;
42284;SDS011;27942;47.510;18.966;2022-12-18T00:11:11;5.37;;;4.93;;
42284;SDS011;27942;47.510;18.966;2022-12-18T00:13:38;7.20;;;5.28;;
42284;SDS011;27942;47.510;18.966;2022-12-18T00:16:04;8.23;;;5.13;;
42284;SDS011;27942;47.510;18.966;2022-12-18T00:18:37;5.57;;;5.07;;
42284;SDS011;27942;47.510;18.966;2022-12-18T00:21:04;7.47;;;4.77;;
42284;SDS011;27942;47.510;18.966;2022-12-18T00:23:32;5.90;;;4.03;;
42284;SDS011;27942;47.510;18.966;2022-12-18T00:26:02;4.40;;;4.10;;
42284;SDS011;27942;47.510;18.966;2022-12-18T00:28:32;5.53;;;4.90;;
42284;SDS011;27942;47.510;18.966;2022-12-18T00:33:34;7.03;;;5.50;;
42284;SDS011;27942;47.510;18.966;2022-12-18T00:36:04;5.00;;;4.57;;
42284;SDS011;27942;47.510;18.966;2022-12-18T00:38:31;6.60;;;6.20;;
42284;SDS011;27942;47.510;18.966;2022-12-18T00:40:58;4.13;;;3.87;;
42284;SDS011;27942;47.510;18.966;2022-12-18T00:43:23;5.17;;;4.90;;
42284;SDS011;27942;47.510;18.966;2022-12-18T00:45:49;5.47;;;5.03;;
42284;SDS011;27942;47.510;18.966;2022-12-18T00:48:14;5.27;;;4.43;;
42284;SDS011;27942;47.510;18.966;2022-12-18T00:50:40;7.27;;;4.33;;
42284;SDS011;27942;47.510;18.966;2022-12-18T00:53:05;6.43;;;4.03;;
42284;SDS011;27942;47.510;18.966;2022-12-18T00:55:31;5.27;;;4.93;;
42284;SDS011;27942;47.510;18.966;2022-12-18T00:57:56;7.20;;;4.90;;
42284;SDS011;27942;47.510;18.966;2022-12-18T01:00:21;4.87;;;4.57;;
42284;SDS011;27942;47.510;18.966;2022-12-18T01:02:47;4.07;;;3.80;;
42284;SDS011;27942;47.510;18.966;2022-12-18T01:05:13;5.30;;;5.00;;
42284;SDS011;27942;47.510;18.966;2022-12-18T01:07:39;5.40;;;4.40;;
42284;SDS011;27942;47.510;18.966;2022-12-18T01:10:04;5.07;;;4.63;;
42284;SDS011;27942;47.510;18.966;2022-12-18T01:12:31;5.60;;;5.10;;
42284;SDS011;27942;47.510;18.966;2022-12-18T01:14:57;5.33;;;5.03;;
42284;SDS011;27942;47.510;18.966;2022-12-18T01:17:22;6.27;;;5.87;;
42284;SDS011;27942;47.510;18.966;2022-12-18T01:19:47;5.77;;;5.17;;
42284;SDS011;27942;47.510;18.966;2022-12-18T01:22:13;5.83;;;5.43;;
42284;SDS011;27942;47.510;18.966;2022-12-18T01:24:38;6.00;;;5.30;;
42284;SDS011;27942;47.510;18.966;2022-12-18T01:27:03;5.17;;;4.77;;
42284;SDS011;27942;47.510;18.966;2022-12-18T01:29:29;5.93;;;4.77;;
42284;SDS011;27942;47.510;18.966;2022-12-18T01:31:55;4.23;;;4.00;;
42284;SDS011;27942;47.510;18.966;2022-12-18T01:34:21;5.60;;;5.03;;
42284;SDS011;27942;47.510;18.966;2022-12-18T01:36:46;7.13;;;6.33;;
42284;SDS011;27942;47.510;18.966;2022-12-18T01:39:12;5.90;;;4.60;;
42284;SDS011;27942;47.510;18.966;2022-12-18T01:41:39;5.40;;;4.90;;
42284;SDS011;27942;47.510;18.966;2022-12-18T01:45:21;5.33;;;5.03;;
42284;SDS011;27942;47.510;18.966;2022-12-18T01:50:15;9.80;;;5.50;;
42284;SDS011;27942;47.510;18.966;2022-12-18T01:52:45;6.30;;;5.80;;
42284;SDS011;27942;47.510;18.966;2022-12-18T01:55:14;9.33;;;5.87;;
42284;SDS011;27942;47.510;18.966;2022-12-18T01:57:42;5.37;;;5.03;;
42284;SDS011;27942;47.510;18.966;2022-12-18T02:00:10;6.17;;;5.53;;
42284;SDS011;27942;47.510;18.966;2022-12-18T02:02:37;5.73;;;5.37;;
42284;SDS011;27942;47.510;18.966;2022-12-18T02:05:05;6.60;;;6.10;;
42284;SDS011;27942;47.510;18.966;2022-12-18T02:13:07;5.23;;;4.93;;
42284;SDS011;27942;47.510;18.966;2022-12-18T02:15:54;4.10;;;3.87;;
42284;SDS011;27942;47.510;18.966;2022-12-18T02:18:28;5.40;;;5.20;;
42284;SDS011;27942;47.510;18.966;2022-12-18T02:28:40;5.50;;;5.03;;
42284;SDS011;27942;47.510;18.966;2022-12-18T02:31:11;5.33;;;4.90;;
42284;SDS011;27942;47.510;18.966;2022-12-18T02:33:41;5.27;;;4.87;;
42284;SDS011;27942;47.510;18.966;2022-12-18T02:36:09;4.95;;;4.65;;
42284;SDS011;27942;47.510;18.966;2022-12-18T02:38:37;15.07;;;5.67;;
42284;SDS011;27942;47.510;18.966;2022-12-18T02:41:04;5.07;;;4.70;;
42284;SDS011;27942;47.510;18.966;2022-12-18T02:43:30;4.93;;;4.70;;
42284;SDS011;27942;47.510;18.966;2022-12-18T02:45:57;5.50;;;5.03;;
42284;SDS011;27942;47.510;18.966;2022-12-18T02:48:25;5.00;;;4.78;;
42284;SDS011;27942;47.510;18.966;2022-12-18T03:02:03;4.63;;;4.43;;
42284;SDS011;27942;47.510;18.966;2022-12-18T03:04:12;4.97;;;4.67;;
42284;SDS011;27942;47.510;18.966;2022-12-18T03:06:45;4.60;;;4.40;;
42284;SDS011;27942;47.510;18.966;2022-12-18T03:09:19;5.23;;;4.83;;
42284;SDS011;27942;47.510;18.966;2022-12-18T03:11:53;5.27;;;4.83;;
42284;SDS011;27942;47.510;18.966;2022-12-18T03:14:40;4.37;;;4.13;;
42284;SDS011;27942;47.510;18.966;2022-12-18T03:17:12;8.98;;;4.82;;
42284;SDS011;27942;47.510;18.966;2022-12-18T03:19:40;6.00;;;5.53;;
42284;SDS011;27942;47.510;18.966;2022-12-18T03:22:08;4.85;;;4.65;;
42284;SDS011;27942;47.510;18.966;2022-12-18T03:24:35;5.30;;;5.00;;
42284;SDS011;27942;47.510;18.966;2022-12-18T03:27:05;4.50;;;4.30;;
42284;SDS011;27942;47.510;18.966;2022-12-18T03:29:42;5.60;;;5.20;;
42284;SDS011;27942;47.510;18.966;2022-12-18T03:32:11;6.53;;;5.40;;
42284;SDS011;27942;47.510;18.966;2022-12-18T03:34:44;4.90;;;4.37;;
42284;SDS011;27942;47.510;18.966;2022-12-18T03:37:14;4.97;;;4.67;;
42284;SDS011;27942;47.510;18.966;2022-12-18T03:39:39;4.97;;;4.67;;
42284;SDS011;27942;47.510;18.966;2022-12-18T03:42:10;5.10;;;4.30;;
42284;SDS011;27942;47.510;18.966;2022-12-18T03:44:44;4.63;;;4.43;;
42284;SDS011;27942;47.510;18.966;2022-12-18T03:55:40;4.13;;;3.93;;
42284;SDS011;27942;47.510;18.966;2022-12-18T03:58:07;4.50;;;4.30;;
42284;SDS011;27942;47.510;18.966;2022-12-18T04:00:36;5.80;;;5.37;;
42284;SDS011;27942;47.510;18.966;2022-12-18T04:03:02;4.77;;;4.57;;
42284;SDS011;27942;47.510;18.966;2022-12-18T04:05:29;4.88;;;4.55;;
42284;SDS011;27942;47.510;18.966;2022-12-18T04:07:57;4.47;;;4.18;;
42284;SDS011;27942;47.510;18.966;2022-12-18T04:10:23;4.90;;;4.67;;
42284;SDS011;27942;47.510;18.966;2022-12-18T04:12:49;6.33;;;5.50;;
42284;SDS011;27942;47.510;18.966;2022-12-18T04:15:14;6.00;;;5.43;;
42284;SDS011;27942;47.510;18.966;2022-12-18T04:17:46;12.50;;;4.57;;
42284;SDS011;27942;47.510;18.966;2022-12-18T04:20:13;4.27;;;4.07;;
42284;SDS011;27942;47.510;18.966;2022-12-18T04:22:39;5.20;;;4.57;;
42284;SDS011;27942;47.510;18.966;2022-12-18T04:25:04;6.37;;;5.10;;
42284;SDS011;27942;47.510;18.966;2022-12-18T04:27:30;7.50;;;6.40;;
42284;SDS011;27942;47.510;18.966;2022-12-18T04:29:55;4.87;;;4.67;;
42284;SDS011;27942;47.510;18.966;2022-12-18T04:32:20;4.43;;;4.20;;
42284;SDS011;27942;47.510;18.966;2022-12-18T04:34:46;5.87;;;4.40;;
42284;SDS011;27942;47.510;18.966;2022-12-18T04:37:11;4.97;;;4.57;;
42284;SDS011;27942;47.510;18.966;2022-12-18T04:39:37;5.00;;;4.57;;
42284;SDS011;27942;47.510;18.966;2022-12-18T04:42:02;4.17;;;3.97;;
42284;SDS011;27942;47.510;18.966;2022-12-18T04:44:27;4.33;;;4.13;;
42284;SDS011;27942;47.510;18.966;2022-12-18T04:46:53;4.07;;;3.87;;
42284;SDS011;27942;47.510;18.966;2022-12-18T04:49:18;4.20;;;4.00;;
42284;SDS011;27942;47.510;18.966;2022-12-18T04:51:43;3.93;;;3.73;;
42284;SDS011;27942;47.510;18.966;2022-12-18T04:54:09;6.60;;;5.00;;
42284;SDS011;27942;47.510;18.966;2022-12-18T04:56:34;4.40;;;4.20;;
42284;SDS011;27942;47.510;18.966;2022-12-18T04:58:59;5.10;;;4.80;;
42284;SDS011;27942;47.510;18.966;2022-12-18T05:01:25;5.30;;;5.00;;
42284;SDS011;27942;47.510;18.966;2022-12-18T05:03:50;4.77;;;4.50;;
42284;SDS011;27942;47.510;18.966;2022-12-18T05:06:16;4.03;;;3.83;;
42284;SDS011;27942;47.510;18.966;2022-12-18T05:08:41;4.93;;;4.73;;
42284;SDS011;27942;47.510;18.966;2022-12-18T05:11:12;5.67;;;5.37;;
42284;SDS011;27942;47.510;18.966;2022-12-18T05:13:41;4.73;;;4.37;;
42284;SDS011;27942;47.510;18.966;2022-12-18T05:16:08;6.37;;;5.80;;
42284;SDS011;27942;47.510;18.966;2022-12-18T05:18:34;4.53;;;4.33;;
42284;SDS011;27942;47.510;18.966;2022-12-18T05:20:59;5.10;;;4.70;;
42284;SDS011;27942;47.510;18.966;2022-12-18T05:23:25;6.07;;;5.67;;
42284;SDS011;27942;47.510;18.966;2022-12-18T05:25:54;5.97;;;5.57;;
42284;SDS011;27942;47.510;18.966;2022-12-18T05:28:25;6.70;;;5.03;;
42284;SDS011;27942;47.510;18.966;2022-12-18T05:30:52;6.07;;;5.00;;
42284;SDS011;27942;47.510;18.966;2022-12-18T05:33:19;4.37;;;3.97;;
42284;SDS011;27942;47.510;18.966;2022-12-18T05:35:52;5.03;;;4.53;;
42284;SDS011;27942;47.510;18.966;2022-12-18T05:38:25;6.13;;;5.67;;
42284;SDS011;27942;47.510;18.966;2022-12-18T05:40:51;6.80;;;4.87;;
42284;SDS011;27942;47.510;18.966;2022-12-18T05:43:18;13.57;;;5.77;;
42284;SDS011;27942;47.510;18.966;2022-12-18T05:45:44;4.23;;;4.03;;
42284;SDS011;27942;47.510;18.966;2022-12-18T05:48:10;4.93;;;4.53;;
42284;SDS011;27942;47.510;18.966;2022-12-18T05:50:36;6.33;;;5.90;;
42284;SDS011;27942;47.510;18.966;2022-12-18T05:53:03;3.67;;;3.57;;
42284;SDS011;27942;47.510;18.966;2022-12-18T05:55:32;10.83;;;5.27;;
42284;SDS011;27942;47.510;18.966;2022-12-18T05:57:59;5.67;;;4.57;;
42284;SDS011;27942;47.510;18.966;2022-12-18T06:00:24;7.93;;;6.43;;
42284;SDS011;27942;47.510;18.966;2022-12-18T06:02:50;4.93;;;4.63;;
42284;SDS011;27942;47.510;18.966;2022-12-18T06:05:15;5.80;;;5.27;;
42284;SDS011;27942;47.510;18.966;2022-12-18T06:07:40;6.70;;;6.10;;
42284;SDS011;27942;47.510;18.966;2022-12-18T06:10:06;4.50;;;4.10;;
42284;SDS011;27942;47.510;18.966;2022-12-18T06:12:31;4.43;;;4.13;;
42284;SDS011;27942;47.510;18.966;2022-12-18T06:14:58;4.17;;;3.97;;
42284;SDS011;27942;47.510;18.966;2022-12-18T06:17:27;4.77;;;4.47;;
42284;SDS011;27942;47.510;18.966;2022-12-18T06:19:53;5.03;;;4.63;;
42284;SDS011;27942;47.510;18.966;2022-12-18T06:22:19;6.10;;;5.20;;
42284;SDS011;27942;47.510;18.966;2022-12-18T06:24:44;4.33;;;4.13;;
42284;SDS011;27942;47.510;18.966;2022-12-18T06:27:10;5.93;;;4.37;;
42284;SDS011;27942;47.510;18.966;2022-12-18T06:29:35;5.40;;;5.07;;
42284;SDS011;27942;47.510;18.966;2022-12-18T06:32:00;4.07;;;3.87;;
42284;SDS011;27942;47.510;18.966;2022-12-18T06:34:26;6.83;;;6.30;;
42284;SDS011;27942;47.510;18.966;2022-12-18T06:36:51;5.13;;;4.93;;
42284;SDS011;27942;47.510;18.966;2022-12-18T06:39:16;5.23;;;4.93;;
42284;SDS011;27942;47.510;18.966;2022-12-18T06:41:41;4.47;;;4.27;;
42284;SDS011;27942;47.510;18.966;2022-12-18T06:44:07;5.53;;;5.17;;
42284;SDS011;27942;47.510;18.966;2022-12-18T06:46:32;6.43;;;5.50;;
42284;SDS011;27942;47.510;18.966;2022-12-18T06:48:57;4.70;;;4.40;;
42284;SDS011;27942;47.510;18.966;2022-12-18T06:51:23;8.13;;;4.77;;
42284;SDS011;27942;47.510;18.966;2022-12-18T06:53:49;4.93;;;4.57;;
42284;SDS011;27942;47.510;18.966;2022-12-18T06:56:15;5.13;;;4.77;;
42284;SDS011;27942;47.510;18.966;2022-12-18T06:58:40;5.33;;;4.37;;
42284;SDS011;27942;47.510;18.966;2022-12-18T07:01:07;4.83;;;4.33;;
42284;SDS011;27942;47.510;18.966;2022-12-18T07:03:34;5.22;;;4.28;;
42284;SDS011;27942;47.510;18.966;2022-12-18T07:06:00;6.83;;;4.13;;
42284;SDS011;27942;47.510;18.966;2022-12-18T07:08:26;4.90;;;4.60;;
42284;SDS011;27942;47.510;18.966;2022-12-18T07:10:51;3.83;;;3.63;;
42284;SDS011;27942;47.510;18.966;2022-12-18T07:13:17;4.53;;;4.23;;
42284;SDS011;27942;47.510;18.966;2022-12-18T07:15:43;6.20;;;5.73;;
42284;SDS011;27942;47.510;18.966;2022-12-18T07:18:09;5.03;;;4.73;;
42284;SDS011;27942;47.510;18.966;2022-12-18T07:20:35;5.40;;;5.03;;
42284;SDS011;27942;47.510;18.966;2022-12-18T07:23:04;4.17;;;3.97;;
42284;SDS011;27942;47.510;18.966;2022-12-18T07:25:30;5.30;;;4.90;;
42284;SDS011;27942;47.510;18.966;2022-12-18T07:27:59;4.83;;;4.53;;
42284;SDS011;27942;47.510;18.966;2022-12-18T07:30:24;5.17;;;4.20;;
42284;SDS011;27942;47.510;18.966;2022-12-18T07:32:50;4.67;;;4.30;;
42284;SDS011;27942;47.510;18.966;2022-12-18T07:35:15;4.77;;;4.47;;
42284;SDS011;27942;47.510;18.966;2022-12-18T07:37:40;4.93;;;4.53;;
42284;SDS011;27942;47.510;18.966;2022-12-18T07:40:06;4.93;;;4.03;;
42284;SDS011;27942;47.510;18.966;2022-12-18T07:42:32;3.70;;;3.60;;
42284;SDS011;27942;47.510;18.966;2022-12-18T07:45:00;11.73;;;5.60;;
42284;SDS011;27942;47.510;18.966;2022-12-18T07:47:27;8.83;;;5.00;;
42284;SDS011;27942;47.510;18.966;2022-12-18T07:49:53;4.17;;;3.77;;
42284;SDS011;27942;47.510;18.966;2022-12-18T07:52:19;3.83;;;3.53;;
42284;SDS011;27942;47.510;18.966;2022-12-18T07:54:45;3.97;;;3.70;;
42284;SDS011;27942;47.510;18.966;2022-12-18T07:57:10;4.17;;;3.83;;
42284;SDS011;27942;47.510;18.966;2022-12-18T07:59:36;4.73;;;4.43;;
42284;SDS011;27942;47.510;18.966;2022-12-18T08:02:02;5.20;;;4.53;;
42284;SDS011;27942;47.510;18.966;2022-12-18T08:04:27;5.37;;;4.97;;
42284;SDS011;27942;47.510;18.966;2022-12-18T08:06:53;4.03;;;3.63;;
42284;SDS011;27942;47.510;18.966;2022-12-18T08:09:18;4.23;;;3.93;;
42284;SDS011;27942;47.510;18.966;2022-12-18T08:11:43;5.23;;;4.10;;
42284;SDS011;27942;47.510;18.966;2022-12-18T08:14:10;4.67;;;4.40;;
42284;SDS011;27942;47.510;18.966;2022-12-18T08:16:35;5.60;;;4.80;;
42284;SDS011;27942;47.510;18.966;2022-12-18T08:19:01;6.30;;;4.77;;
42284;SDS011;27942;47.510;18.966;2022-12-18T08:21:28;3.70;;;3.50;;
42284;SDS011;27942;47.510;18.966;2022-12-18T08:23:55;3.83;;;3.63;;
42284;SDS011;27942;47.510;18.966;2022-12-18T08:26:22;6.77;;;3.27;;
42284;SDS011;27942;47.510;18.966;2022-12-18T08:28:49;5.77;;;4.97;;
42284;SDS011;27942;47.510;18.966;2022-12-18T08:31:15;3.77;;;3.47;;
42284;SDS011;27942;47.510;18.966;2022-12-18T08:33:41;6.80;;;4.33;;
42284;SDS011;27942;47.510;18.966;2022-12-18T08:36:07;5.93;;;5.43;;
42284;SDS011;27942;47.510;18.966;2022-12-18T08:38:34;9.13;;;5.40;;
42284;SDS011;27942;47.510;18.966;2022-12-18T08:41:00;5.37;;;4.97;;
42284;SDS011;27942;47.510;18.966;2022-12-18T08:43:26;4.20;;;3.87;;
42284;SDS011;27942;47.510;18.966;2022-12-18T08:46:11;7.50;;;3.87;;
42284;SDS011;27942;47.510;18.966;2022-12-18T08:48:36;4.37;;;3.97;;
42284;SDS011;27942;47.510;18.966;2022-12-18T08:51:01;5.70;;;4.07;;
42284;SDS011;27942;47.510;18.966;2022-12-18T08:53:27;3.53;;;3.33;;
42284;SDS011;27942;47.510;18.966;2022-12-18T08:55:53;3.77;;;3.50;;
42284;SDS011;27942;47.510;18.966;2022-12-18T08:58:19;5.37;;;3.60;;
42284;SDS011;27942;47.510;18.966;2022-12-18T09:00:44;5.60;;;4.43;;
42284;SDS011;27942;47.510;18.966;2022-12-18T09:03:16;5.83;;;3.97;;
42284;SDS011;27942;47.510;18.966;2022-12-18T09:05:43;3.93;;;3.53;;
42284;SDS011;27942;47.510;18.966;2022-12-18T09:08:10;4.37;;;3.63;;
42284;SDS011;27942;47.510;18.966;2022-12-18T09:10:41;4.87;;;4.43;;
42284;SDS011;27942;47.510;18.966;2022-12-18T09:13:12;4.63;;;4.27;;
42284;SDS011;27942;47.510;18.966;2022-12-18T09:15:45;3.72;;;3.42;;
42284;SDS011;27942;47.510;18.966;2022-12-18T09:18:12;9.27;;;3.80;;
42284;SDS011;27942;47.510;18.966;2022-12-18T09:20:38;10.87;;;4.27;;
42284;SDS011;27942;47.510;18.966;2022-12-18T09:23:04;7.17;;;5.00;;
42284;SDS011;27942;47.510;18.966;2022-12-18T09:25:30;4.67;;;4.33;;
42284;SDS011;27942;47.510;18.966;2022-12-18T09:28:00;3.80;;;3.53;;
42284;SDS011;27942;47.510;18.966;2022-12-18T09:30:30;4.33;;;3.50;;
42284;SDS011;27942;47.510;18.966;2022-12-18T09:32:58;4.10;;;3.78;;
42284;SDS011;27942;47.510;18.966;2022-12-18T09:35:23;5.03;;;4.57;;
42284;SDS011;27942;47.510;18.966;2022-12-18T09:37:49;5.20;;;4.23;;
42284;SDS011;27942;47.510;18.966;2022-12-18T09:40:14;4.27;;;3.87;;
42284;SDS011;27942;47.510;18.966;2022-12-18T09:45:14;5.18;;;3.92;;
42284;SDS011;27942;47.510;18.966;2022-12-18T09:47:40;5.70;;;4.70;;
42284;SDS011;27942;47.510;18.966;2022-12-18T09:52:48;5.03;;;4.57;;
42284;SDS011;27942;47.510;18.966;2022-12-18T09:58:12;3.50;;;3.17;;
42284;SDS011;27942;47.510;18.966;2022-12-18T10:03:11;5.17;;;4.63;;
42284;SDS011;27942;47.510;18.966;2022-12-18T10:10:40;11.93;;;6.17;;
42284;SDS011;27942;47.510;18.966;2022-12-18T10:21:30;8.33;;;6.63;;
42284;SDS011;27942;47.510;18.966;2022-12-18T10:26:38;8.50;;;4.93;;
42284;SDS011;27942;47.510;18.966;2022-12-18T10:29:08;5.67;;;5.07;;
42284;SDS011;27942;47.510;18.966;2022-12-18T10:31:37;13.60;;;5.33;;
42284;SDS011;27942;47.510;18.966;2022-12-18T10:34:02;4.87;;;4.23;;
42284;SDS011;27942;47.510;18.966;2022-12-18T10:36:27;7.90;;;5.27;;
42284;SDS011;27942;47.510;18.966;2022-12-18T10:38:53;6.23;;;4.73;;
42284;SDS011;27942;47.510;18.966;2022-12-18T10:43:45;6.57;;;5.07;;
42284;SDS011;27942;47.510;18.966;2022-12-18T10:48:40;3.57;;;3.30;;
42284;SDS011;27942;47.510;18.966;2022-12-18T10:51:23;4.53;;;4.13;;
42284;SDS011;27942;47.510;18.966;2022-12-18T10:53:55;6.30;;;4.73;;
42284;SDS011;27942;47.510;18.966;2022-12-18T10:56:24;9.03;;;4.87;;
42284;SDS011;27942;47.510;18.966;2022-12-18T10:58:59;5.95;;;4.82;;
42284;SDS011;27942;47.510;18.966;2022-12-18T11:01:26;4.50;;;4.10;;
42284;SDS011;27942;47.510;18.966;2022-12-18T11:06:19;6.50;;;5.27;;
42284;SDS011;27942;47.510;18.966;2022-12-18T11:09:00;5.73;;;5.20;;
42284;SDS011;27942;47.510;18.966;2022-12-18T11:11:27;6.53;;;3.78;;
42284;SDS011;27942;47.510;18.966;2022-12-18T11:16:29;9.83;;;5.83;;
42284;SDS011;27942;47.510;18.966;2022-12-18T11:19:09;8.20;;;4.90;;
42284;SDS011;27942;47.510;18.966;2022-12-18T11:21:45;6.07;;;4.17;;
42284;SDS011;27942;47.510;18.966;2022-12-18T11:26:55;9.53;;;5.90;;
42284;SDS011;27942;47.510;18.966;2022-12-18T11:29:23;4.82;;;4.00;;
42284;SDS011;27942;47.510;18.966;2022-12-18T11:35:04;8.40;;;3.50;;
42284;SDS011;27942;47.510;18.966;2022-12-18T11:38:00;5.17;;;4.10;;
42284;SDS011;27942;47.510;18.966;2022-12-18T11:40:33;2.85;;;2.65;;
42284;SDS011;27942;47.510;18.966;2022-12-18T11:43:07;7.17;;;5.73;;
42284;SDS011;27942;47.510;18.966;2022-12-18T11:45:43;6.53;;;5.87;;
42284;SDS011;27942;47.510;18.966;2022-12-18T11:48:16;5.33;;;4.90;;
42284;SDS011;27942;47.510;18.966;2022-12-18T11:50:53;7.87;;;5.10;;
42284;SDS011;27942;47.510;18.966;2022-12-18T11:53:20;12.27;;;6.00;;
42284;SDS011;27942;47.510;18.966;2022-12-18T12:01:51;9.63;;;5.60;;
42284;SDS011;27942;47.510;18.966;2022-12-18T12:12:14;5.37;;;4.87;;
42284;SDS011;27942;47.510;18.966;2022-12-18T12:14:58;8.13;;;5.57;;
42284;SDS011;27942;47.510;18.966;2022-12-18T12:22:46;5.63;;;5.03;;
42284;SDS011;27942;47.510;18.966;2022-12-18T12:25:37;4.17;;;3.77;;
42284;SDS011;27942;47.510;18.966;2022-12-18T12:28:13;4.63;;;4.23;;
42284;SDS011;27942;47.510;18.966;2022-12-18T12:36:15;9.07;;;4.83;;
42284;SDS011;27942;47.510;18.966;2022-12-18T12:38:51;5.00;;;3.93;;
42284;SDS011;27942;47.510;18.966;2022-12-18T12:41:25;4.77;;;4.37;;
42284;SDS011;27942;47.510;18.966;2022-12-18T12:44:15;5.57;;;4.37;;
42284;SDS011;27942;47.510;18.966;2022-12-18T12:46:44;8.87;;;5.80;;
42284;SDS011;27942;47.510;18.966;2022-12-18T12:49:12;12.67;;;6.97;;
42284;SDS011;27942;47.510;18.966;2022-12-18T12:51:41;9.83;;;6.20;;
42284;SDS011;27942;47.510;18.966;2022-12-18T12:54:28;10.67;;;6.63;;
42284;SDS011;27942;47.510;18.966;2022-12-18T13:07:35;5.90;;;4.20;;
42284;SDS011;27942;47.510;18.966;2022-12-18T13:15:25;12.00;;;8.53;;
42284;SDS011;27942;47.510;18.966;2022-12-18T13:18:10;9.60;;;7.23;;
42284;SDS011;27942;47.510;18.966;2022-12-18T13:20:44;7.30;;;5.70;;
42284;SDS011;27942;47.510;18.966;2022-12-18T13:31:06;7.00;;;6.30;;
42284;SDS011;27942;47.510;18.966;2022-12-18T13:36:16;7.72;;;6.03;;
42284;SDS011;27942;47.510;18.966;2022-12-18T13:38:42;7.93;;;5.80;;
42284;SDS011;27942;47.510;18.966;2022-12-18T13:43:43;7.53;;;6.73;;
42284;SDS011;27942;47.510;18.966;2022-12-18T13:48:59;9.30;;;4.73;;
42284;SDS011;27942;47.510;18.966;2022-12-18T13:51:25;11.27;;;6.50;;
42284;SDS011;27942;47.510;18.966;2022-12-18T13:56:26;7.30;;;5.80;;
42284;SDS011;27942;47.510;18.966;2022-12-18T13:59:09;4.22;;;4.00;;
42284;SDS011;27942;47.510;18.966;2022-12-18T14:07:12;4.85;;;4.35;;
42284;SDS011;27942;47.510;18.966;2022-12-18T14:09:40;6.10;;;5.27;;
42284;SDS011;27942;47.510;18.966;2022-12-18T14:15:39;9.23;;;5.53;;
42284;SDS011;27942;47.510;18.966;2022-12-18T14:20:45;11.60;;;7.57;;
42284;SDS011;27942;47.510;18.966;2022-12-18T14:26:02;16.95;;;8.95;;
42284;SDS011;27942;47.510;18.966;2022-12-18T14:28:43;17.93;;;10.80;;
42284;SDS011;27942;47.510;18.966;2022-12-18T14:31:16;11.73;;;10.00;;
42284;SDS011;27942;47.510;18.966;2022-12-18T14:33:46;12.07;;;8.23;;
42284;SDS011;27942;47.510;18.966;2022-12-18T14:36:13;7.97;;;4.97;;
42284;SDS011;27942;47.510;18.966;2022-12-18T14:38:41;4.67;;;4.33;;
42284;SDS011;27942;47.510;18.966;2022-12-18T14:41:11;5.73;;;5.23;;
42284;SDS011;27942;47.510;18.966;2022-12-18T14:43:39;10.13;;;6.10;;
42284;SDS011;27942;47.510;18.966;2022-12-18T14:46:25;9.10;;;5.57;;
42284;SDS011;27942;47.510;18.966;2022-12-18T14:49:05;8.05;;;5.65;;
42284;SDS011;27942;47.510;18.966;2022-12-18T14:51:47;13.73;;;5.23;;
42284;SDS011;27942;47.510;18.966;2022-12-18T14:54:15;9.53;;;5.03;;
42284;SDS011;27942;47.510;18.966;2022-12-18T14:59:14;4.03;;;3.83;;
42284;SDS011;27942;47.510;18.966;2022-12-18T15:01:59;4.73;;;4.47;;
42284;SDS011;27942;47.510;18.966;2022-12-18T15:09:47;10.43;;;6.60;;
42284;SDS011;27942;47.510;18.966;2022-12-18T15:12:35;6.97;;;6.33;;
42284;SDS011;27942;47.510;18.966;2022-12-18T15:15:04;8.33;;;6.40;;
42284;SDS011;27942;47.510;18.966;2022-12-18T15:17:56;6.30;;;5.20;;
42284;SDS011;27942;47.510;18.966;2022-12-18T15:20:22;11.30;;;7.10;;
42284;SDS011;27942;47.510;18.966;2022-12-18T15:22:48;7.70;;;6.93;;
42284;SDS011;27942;47.510;18.966;2022-12-18T15:28:15;13.10;;;7.40;;
42284;SDS011;27942;47.510;18.966;2022-12-18T15:33:35;11.07;;;8.73;;
42284;SDS011;27942;47.510;18.966;2022-12-18T15:38:29;13.17;;;8.07;;
42284;SDS011;27942;47.510;18.966;2022-12-18T15:40:55;15.97;;;9.80;;
42284;SDS011;27942;47.510;18.966;2022-12-18T15:43:22;11.70;;;9.37;;
42284;SDS011;27942;47.510;18.966;2022-12-18T15:46:06;11.10;;;7.10;;
42284;SDS011;27942;47.510;18.966;2022-12-18T15:48:35;10.37;;;7.40;;
42284;SDS011;27942;47.510;18.966;2022-12-18T15:51:07;9.80;;;7.67;;
42284;SDS011;27942;47.510;18.966;2022-12-18T15:53:40;9.87;;;6.20;;
42284;SDS011;27942;47.510;18.966;2022-12-18T15:56:10;10.83;;;8.60;;
42284;SDS011;27942;47.510;18.966;2022-12-18T15:58:55;7.33;;;6.63;;
42284;SDS011;27942;47.510;18.966;2022-12-18T16:01:22;7.37;;;6.17;;
42284;SDS011;27942;47.510;18.966;2022-12-18T16:03:49;7.88;;;6.38;;
42284;SDS011;27942;47.510;18.966;2022-12-18T16:06:15;5.63;;;5.17;;
42284;SDS011;27942;47.510;18.966;2022-12-18T16:08:41;7.33;;;6.33;;
42284;SDS011;27942;47.510;18.966;2022-12-18T16:11:08;12.67;;;7.10;;
42284;SDS011;27942;47.510;18.966;2022-12-18T16:13:41;5.83;;;5.27;;
42284;SDS011;27942;47.510;18.966;2022-12-18T16:16:07;6.63;;;5.87;;
42284;SDS011;27942;47.510;18.966;2022-12-18T16:18:33;13.93;;;9.80;;
42284;SDS011;27942;47.510;18.966;2022-12-18T16:20:59;15.77;;;7.40;;
42284;SDS011;27942;47.510;18.966;2022-12-18T16:23:25;15.93;;;11.10;;
42284;SDS011;27942;47.510;18.966;2022-12-18T16:25:52;11.37;;;6.90;;
42284;SDS011;27942;47.510;18.966;2022-12-18T16:28:18;11.17;;;8.47;;
42284;SDS011;27942;47.510;18.966;2022-12-18T16:30:43;7.47;;;6.57;;
42284;SDS011;27942;47.510;18.966;2022-12-18T16:33:09;10.93;;;7.13;;
42284;SDS011;27942;47.510;18.966;2022-12-18T16:35:36;11.43;;;6.57;;
42284;SDS011;27942;47.510;18.966;2022-12-18T16:38:03;10.10;;;7.23;;
42284;SDS011;27942;47.510;18.966;2022-12-18T16:40:30;7.23;;;6.60;;
42284;SDS011;27942;47.510;18.966;2022-12-18T16:42:57;13.40;;;8.00;;
42284;SDS011;27942;47.510;18.966;2022-12-18T16:45:23;9.03;;;6.37;;
42284;SDS011;27942;47.510;18.966;2022-12-18T16:47:49;17.97;;;8.77;;
42284;SDS011;27942;47.510;18.966;2022-12-18T16:50:15;10.87;;;8.47;;
42284;SDS011;27942;47.510;18.966;2022-12-18T16:52:43;8.07;;;7.37;;
42284;SDS011;27942;47.510;18.966;2022-12-18T16:55:09;7.60;;;6.90;;
42284;SDS011;27942;47.510;18.966;2022-12-18T16:57:34;16.63;;;6.57;;
42284;SDS011;27942;47.510;18.966;2022-12-18T17:00:00;9.57;;;8.80;;
42284;SDS011;27942;47.510;18.966;2022-12-18T17:02:26;17.13;;;8.27;;
42284;SDS011;27942;47.510;18.966;2022-12-18T17:04:53;8.37;;;6.97;;
42284;SDS011;27942;47.510;18.966;2022-12-18T17:07:22;8.93;;;8.20;;
42284;SDS011;27942;47.510;18.966;2022-12-18T17:09:48;11.77;;;6.80;;
42284;SDS011;27942;47.510;18.966;2022-12-18T17:12:15;7.30;;;6.00;;
42284;SDS011;27942;47.510;18.966;2022-12-18T17:14:42;8.27;;;6.90;;
42284;SDS011;27942;47.510;18.966;2022-12-18T17:17:08;7.30;;;6.50;;
42284;SDS011;27942;47.510;18.966;2022-12-18T17:19:34;6.63;;;6.03;;
42284;SDS011;27942;47.510;18.966;2022-12-18T17:21:59;6.43;;;5.87;;
42284;SDS011;27942;47.510;18.966;2022-12-18T17:24:25;7.90;;;6.13;;
42284;SDS011;27942;47.510;18.966;2022-12-18T17:26:51;6.67;;;6.03;;
42284;SDS011;27942;47.510;18.966;2022-12-18T17:29:18;6.43;;;5.67;;
42284;SDS011;27942;47.510;18.966;2022-12-18T17:31:45;7.93;;;6.73;;